Time;durP1;ratioP1;P1;durP2;ratioP2;P2;SDS_P1;SDS_P2;PMS_P1;PMS_P2;Temp;Humidity;BMP_temperature;BMP_pressure;BME280_temperature;BME280_humidity;BME280_pressure;Samples;Min_cycle;Max_cycle;Signal;HPM_P1;HPM_P2
2022/09/26 00:00:41;;;;;;;2.00;1.33;;;20.40;70.20;;;;;;4994956;28;20875;-67
2022/09/26 00:03:09;;;;;;;1.33;1.23;;;20.40;70.30;;;;;;4995587;28;20454;-70
2022/09/26 00:05:36;;;;;;;1.67;1.57;;;20.40;70.40;;;;;;5006216;28;20530;-69
2022/09/26 00:08:05;;;;;;;1.40;1.30;;;20.40;71.60;;;;;;4994730;28;20451;-70
2022/09/26 00:10:32;;;;;;;2.23;1.00;;;20.50;73.30;;;;;;4994497;28;20486;-71
2022/09/26 00:12:59;;;;;;;2.80;2.37;;;20.50;74.80;;;;;;4994573;28;20827;-71
2022/09/26 00:15:26;;;;;;;1.00;1.00;;;20.50;75.90;;;;;;4994605;28;20487;-68
2022/09/26 00:17:53;;;;;;;1.57;1.47;;;20.50;76.90;;;;;;4993808;28;20836;-69
2022/09/26 00:20:20;;;;;;;1.43;1.33;;;20.50;77.50;;;;;;4993915;28;20443;-69
2022/09/26 00:22:47;;;;;;;1.70;1.17;;;20.40;77.60;;;;;;4994008;28;20447;-71
2022/09/26 00:25:15;;;;;;;1.20;1.20;;;20.40;77.90;;;;;;4994371;28;20534;-70
2022/09/26 00:27:42;;;;;;;1.37;1.37;;;20.50;78.10;;;;;;4994002;28;20558;-70
2022/09/26 00:30:11;;;;;;;5.13;1.67;;;20.40;78.50;;;;;;4994242;28;20487;-71
2022/09/26 00:32:38;;;;;;;1.10;1.10;;;20.40;78.60;;;;;;4994074;28;20455;-70
2022/09/26 00:35:05;;;;;;;0.93;0.93;;;20.40;78.60;;;;;;4994243;28;20867;-70
2022/09/26 00:37:32;;;;;;;1.67;1.57;;;20.40;78.90;;;;;;4994605;28;20485;-71
2022/09/26 00:39:59;;;;;;;1.33;1.23;;;20.40;79.10;;;;;;4993867;28;20479;-69
2022/09/26 00:42:27;;;;;;;1.33;1.23;;;20.40;79.30;;;;;;4993941;28;20558;-69
2022/09/26 00:44:55;;;;;;;1.40;1.40;;;20.40;79.00;;;;;;4994007;28;20539;-69
2022/09/26 00:47:32;;;;;;;1.63;1.63;;;20.50;78.70;;;;;;4993890;28;20807;-69
2022/09/26 00:50:04;;;;;;;1.80;1.70;;;20.40;78.60;;;;;;4993984;28;20501;-69
2022/09/26 00:52:36;;;;;;;1.97;1.40;;;20.40;78.40;;;;;;4993554;28;20457;-69
2022/09/26 00:55:06;;;;;;;0.90;0.90;;;20.40;78.60;;;;;;4993899;28;20455;-69
2022/09/26 00:57:39;;;;;;;1.63;1.53;;;20.40;78.70;;;;;;4993724;28;20981;-69
2022/09/26 01:00:09;;;;;;;1.67;1.33;;;20.30;78.50;;;;;;4993806;28;20457;-69
2022/09/26 01:02:36;;;;;;;1.50;1.50;;;20.30;78.70;;;;;;4993444;28;20455;-68
2022/09/26 01:05:05;;;;;;;1.60;1.50;;;20.30;78.80;;;;;;4993346;28;20457;-69
2022/09/26 01:07:33;;;;;;;1.80;1.43;;;20.30;78.90;;;;;;4993272;28;21020;-69
2022/09/26 01:10:02;;;;;;;1.87;1.40;;;20.40;79.10;;;;;;4993456;28;20482;-69
2022/09/26 01:12:29;;;;;;;1.27;1.17;;;20.30;79.00;;;;;;4993386;28;20443;-69
2022/09/26 01:14:58;;;;;;;2.30;1.30;;;20.30;79.30;;;;;;4993454;28;20449;-69
2022/09/26 01:17:27;;;;;;;3.53;1.70;;;20.30;79.30;;;;;;4993019;28;20560;-68
2022/09/26 01:20:05;;;;;;;1.87;1.77;;;20.30;79.40;;;;;;4993579;28;20946;-67
2022/09/26 01:23:02;;;;;;;1.70;1.60;;;20.30;79.40;;;;;;4993200;28;20875;-68
2022/09/26 01:25:44;;;;;;;1.50;1.43;;;20.20;79.30;;;;;;4993340;28;20826;-68
2022/09/26 01:28:27;;;;;;;1.47;1.47;;;20.20;79.40;;;;;;4993261;28;20451;-68
2022/09/26 01:31:02;;;;;;;1.60;1.50;;;20.20;79.50;;;;;;4992334;28;20485;-68
2022/09/26 01:33:50;;;;;;;1.33;1.23;;;20.20;79.50;;;;;;4993007;28;20932;-68
2022/09/26 01:36:27;;;;;;;1.53;1.53;;;20.20;79.70;;;;;;4992818;28;20486;-68
2022/09/26 01:39:08;;;;;;;2.07;1.97;;;20.20;79.70;;;;;;4992785;28;20546;-68
2022/09/26 01:41:47;;;;;;;1.80;1.70;;;20.20;79.70;;;;;;4992846;28;20451;-68
2022/09/26 01:44:25;;;;;;;2.40;2.20;;;20.10;79.80;;;;;;4992764;28;20450;-68
2022/09/26 01:46:58;;;;;;;2.70;2.60;;;20.10;79.80;;;;;;4992844;28;20494;-67
2022/09/26 01:49:31;;;;;;;1.70;1.70;;;20.10;79.80;;;;;;4992876;28;21008;-67
2022/09/26 01:52:03;;;;;;;1.90;1.80;;;20.20;80.00;;;;;;4992661;28;20451;-68
2022/09/26 01:54:36;;;;;;;2.17;1.77;;;20.10;80.00;;;;;;4992797;28;20474;-68
2022/09/26 01:57:06;;;;;;;2.17;1.80;;;20.10;79.90;;;;;;4992671;28;20471;-69
2022/09/26 01:59:37;;;;;;;1.73;1.63;;;20.10;79.90;;;;;;4992564;28;20483;-68
2022/09/26 02:02:10;;;;;;;1.93;1.83;;;20.10;80.10;;;;;;4992292;28;20459;-69
2022/09/26 02:04:40;;;;;;;1.80;1.70;;;20.10;80.10;;;;;;4992641;28;20958;-69
2022/09/26 02:07:12;;;;;;;1.63;1.53;;;20.10;80.20;;;;;;4992578;28;20472;-70
2022/09/26 02:09:45;;;;;;;1.70;1.60;;;20.10;80.30;;;;;;4992606;28;20489;-69
2022/09/26 02:12:18;;;;;;;1.67;1.40;;;20.10;80.40;;;;;;4992609;28;20989;-68
2022/09/26 02:14:49;;;;;;;1.40;1.30;;;20.10;80.50;;;;;;4992527;28;20450;-68
2022/09/26 02:17:21;;;;;;;2.00;1.90;;;20.00;80.50;;;;;;4992401;28;21334;-69
2022/09/26 02:19:55;;;;;;;1.70;1.60;;;20.00;80.60;;;;;;4992566;28;20451;-68
2022/09/26 02:22:22;;;;;;;1.53;1.43;;;20.10;80.90;;;;;;5010449;28;20533;-69
2022/09/26 02:24:49;;;;;;;1.87;1.77;;;20.00;80.80;;;;;;5011976;28;20448;-68
2022/09/26 02:27:16;;;;;;;2.20;2.10;;;20.00;80.90;;;;;;4998004;28;20593;-69
2022/09/26 02:29:44;;;;;;;2.33;2.23;;;20.00;80.90;;;;;;4992267;28;20550;-68
2022/09/26 02:32:15;;;;;;;2.37;2.27;;;20.00;81.00;;;;;;4997320;28;20534;-69
2022/09/26 02:34:46;;;;;;;1.70;1.60;;;20.00;81.10;;;;;;5011981;28;20442;-68
2022/09/26 02:37:15;;;;;;;2.23;2.13;;;20.00;81.20;;;;;;5011677;28;20481;-68
2022/09/26 02:39:43;;;;;;;1.90;1.80;;;20.00;81.40;;;;;;5007645;28;20451;-68
2022/09/26 02:42:20;;;;;;;2.03;1.87;;;20.00;81.50;;;;;;4995581;28;20443;-68
2022/09/26 02:45:04;;;;;;;1.73;1.63;;;20.00;81.70;;;;;;4996398;28;20869;-68
2022/09/26 02:47:53;;;;;;;1.93;1.83;;;20.00;81.90;;;;;;4996133;28;21058;-69
2022/09/26 02:50:52;;;;;;;2.53;1.57;;;20.00;81.80;;;;;;4996157;28;20505;-69
2022/09/26 02:53:35;;;;;;;5.27;2.13;;;19.90;81.90;;;;;;5012416;28;20450;-68
2022/09/26 02:56:09;;;;;;;1.60;1.50;;;19.90;82.00;;;;;;5015622;28;20458;-68
2022/09/26 02:58:46;;;;;;;2.20;2.10;;;19.90;82.80;;;;;;5015627;28;20452;-68
2022/09/26 03:01:19;;;;;;;1.70;1.60;;;19.90;82.30;;;;;;5015414;28;20442;-68
2022/09/26 03:03:53;;;;;;;2.20;2.00;;;19.90;82.40;;;;;;5013889;28;20839;-68
2022/09/26 03:06:27;;;;;;;2.03;1.93;;;19.90;83.30;;;;;;5015500;28;20823;-68
2022/09/26 03:08:55;;;;;;;1.67;1.57;;;19.90;82.70;;;;;;5015428;28;20553;-68
2022/09/26 03:11:25;;;;;;;3.00;1.97;;;19.90;82.80;;;;;;5011729;28;20504;-68
2022/09/26 03:13:54;;;;;;;1.90;1.80;;;19.90;83.00;;;;;;4995969;28;20504;-68
2022/09/26 03:16:22;;;;;;;1.77;1.67;;;19.90;83.20;;;;;;4995532;28;20898;-68
2022/09/26 03:18:54;;;;;;;1.87;1.77;;;19.90;83.20;;;;;;5010196;28;20834;-67
2022/09/26 03:21:22;;;;;;;1.80;1.70;;;19.80;83.20;;;;;;5015075;28;20474;-67
2022/09/26 03:23:50;;;;;;;1.80;1.70;;;19.80;83.40;;;;;;4998848;28;20447;-67
2022/09/26 03:26:20;;;;;;;4.30;3.90;;;19.80;83.40;;;;;;4995538;28;20839;-68
2022/09/26 03:28:47;;;;;;;2.60;2.40;;;19.80;83.50;;;;;;4995567;28;20475;-67
2022/09/26 03:31:14;;;;;;;2.20;2.00;;;19.80;83.50;;;;;;4999231;28;20924;-69
2022/09/26 03:33:41;;;;;;;2.00;1.90;;;19.80;83.70;;;;;;5014935;28;20864;-68
2022/09/26 03:36:09;;;;;;;1.53;1.43;;;19.80;83.70;;;;;;5014739;28;20552;-68
2022/09/26 03:38:37;;;;;;;2.23;2.03;;;19.80;83.80;;;;;;5014903;28;20449;-67
2022/09/26 03:41:04;;;;;;;1.90;1.80;;;19.80;83.70;;;;;;5014877;28;20538;-68
2022/09/26 03:43:31;;;;;;;1.43;1.43;;;19.80;84.10;;;;;;5006495;28;20454;-68
2022/09/26 03:46:02;;;;;;;1.70;1.60;;;19.80;84.10;;;;;;4995168;28;21000;-67
2022/09/26 03:48:30;;;;;;;1.50;1.50;;;19.80;84.30;;;;;;4995192;28;20537;-68
2022/09/26 03:51:02;;;;;;;3.47;2.50;;;19.80;84.40;;;;;;4998863;28;20787;-67
2022/09/26 03:53:31;;;;;;;1.50;1.50;;;19.80;84.50;;;;;;5012105;28;20442;-68
2022/09/26 03:56:04;;;;;;;1.87;1.77;;;19.70;84.40;;;;;;5014499;28;20558;-68
2022/09/26 03:58:31;;;;;;;1.80;1.70;;;19.70;84.40;;;;;;5014511;28;20538;-67
2022/09/26 04:01:03;;;;;;;1.90;1.80;;;19.80;84.50;;;;;;5014469;28;20457;-67
2022/09/26 04:03:33;;;;;;;1.63;1.53;;;19.70;84.50;;;;;;5011494;28;20964;-68
2022/09/26 04:06:00;;;;;;;1.83;1.73;;;19.80;84.70;;;;;;4994749;28;20472;-67
2022/09/26 04:08:27;;;;;;;2.43;2.23;;;19.70;84.70;;;;;;4994749;28;21023;-68
2022/09/26 04:11:01;;;;;;;3.40;1.50;;;19.70;84.80;;;;;;4994583;28;20489;-68
2022/09/26 04:13:29;;;;;;;2.90;2.10;;;19.70;84.80;;;;;;4994532;28;20509;-67
2022/09/26 04:15:57;;;;;;;2.03;1.90;;;19.70;84.80;;;;;;4994610;28;20968;-67
2022/09/26 04:18:24;;;;;;;2.50;1.57;;;19.70;84.80;;;;;;4995601;28;20521;-67
2022/09/26 04:20:57;;;;;;;1.63;1.53;;;19.70;85.00;;;;;;4994547;28;20439;-67
2022/09/26 04:23:24;;;;;;;2.13;1.90;;;19.70;85.00;;;;;;4994526;28;20585;-68
2022/09/26 04:25:51;;;;;;;1.70;1.50;;;19.70;85.10;;;;;;4996790;28;20542;-68
2022/09/26 04:28:18;;;;;;;2.20;2.00;;;19.70;85.00;;;;;;5013819;28;20542;-68
2022/09/26 04:30:46;;;;;;;2.10;1.90;;;19.70;85.10;;;;;;5013852;28;20492;-68
2022/09/26 04:33:13;;;;;;;2.00;1.90;;;19.70;85.00;;;;;;4993967;28;20527;-68
2022/09/26 04:35:40;;;;;;;1.70;1.60;;;19.70;85.20;;;;;;4993981;28;20458;-67
2022/09/26 04:38:07;;;;;;;1.53;1.43;;;19.70;85.20;;;;;;4994254;28;20490;-68
2022/09/26 04:40:34;;;;;;;1.53;1.50;;;19.60;85.00;;;;;;4994184;28;20479;-68
2022/09/26 04:43:01;;;;;;;1.80;1.70;;;19.60;85.10;;;;;;4993938;28;20534;-67
2022/09/26 04:45:28;;;;;;;1.70;1.60;;;19.60;85.20;;;;;;4993915;28;20465;-67
2022/09/26 04:47:56;;;;;;;2.60;1.97;;;19.60;85.20;;;;;;4994017;28;20509;-68
2022/09/26 04:50:23;;;;;;;2.30;2.20;;;19.60;85.20;;;;;;4993854;28;20449;-68
2022/09/26 04:52:50;;;;;;;1.77;1.67;;;19.60;85.30;;;;;;4993500;28;20451;-67
2022/09/26 04:55:17;;;;;;;1.80;1.80;;;19.60;85.20;;;;;;4993866;28;20501;-67
2022/09/26 04:57:44;;;;;;;1.50;1.40;;;19.60;85.20;;;;;;4993673;28;20498;-67
2022/09/26 05:00:12;;;;;;;1.30;1.30;;;19.60;85.20;;;;;;4993664;28;20475;-68
2022/09/26 05:02:39;;;;;;;1.27;1.20;;;19.60;85.30;;;;;;4993486;28;20940;-67
2022/09/26 05:05:08;;;;;;;1.80;1.60;;;19.60;85.20;;;;;;4992697;28;20482;-67
2022/09/26 05:07:39;;;;;;;2.37;1.40;;;19.60;85.10;;;;;;4993506;28;20560;-68
2022/09/26 05:10:09;;;;;;;1.83;1.73;;;19.60;85.20;;;;;;4993703;28;20447;-67
2022/09/26 05:12:38;;;;;;;1.73;1.63;;;19.60;85.00;;;;;;4992805;28;20479;-67
2022/09/26 05:15:07;;;;;;;1.90;1.13;;;19.60;85.80;;;;;;4993250;28;20480;-67
2022/09/26 05:17:34;;;;;;;1.20;1.20;;;19.60;85.10;;;;;;4993078;28;20475;-68
2022/09/26 05:20:02;;;;;;;1.73;1.63;;;19.60;85.10;;;;;;4993461;28;20530;-68
2022/09/26 05:22:31;;;;;;;1.20;1.10;;;19.50;85.00;;;;;;4993215;28;20443;-67
2022/09/26 05:27:43;;;;;;;5.13;1.87;;;19.50;84.80;;;;;;4993179;28;20446;-67
2022/09/26 05:30:11;;;;;;;1.07;1.07;;;19.50;84.90;;;;;;4993212;28;20829;-68
2022/09/26 05:32:39;;;;;;;1.67;1.00;;;19.50;84.80;;;;;;4992512;28;20483;-67
2022/09/26 05:35:06;;;;;;;1.63;1.53;;;19.50;84.90;;;;;;4993179;28;20801;-68
2022/09/26 05:37:34;;;;;;;1.40;1.40;;;19.50;84.90;;;;;;4993086;28;20659;-67
2022/09/26 05:42:46;;;;;;;1.23;1.23;;;19.50;84.80;;;;;;4992599;28;20434;-68
2022/09/26 05:45:14;;;;;;;1.60;1.50;;;19.50;84.90;;;;;;4992942;28;20535;-69
2022/09/26 05:47:41;;;;;;;0.90;0.90;;;19.50;85.50;;;;;;4992800;28;20467;-69
2022/09/26 05:50:09;;;;;;;2.53;2.33;;;19.50;85.20;;;;;;4992797;28;20459;-69
2022/09/26 05:52:38;;;;;;;0.90;0.90;;;19.50;85.20;;;;;;4992512;28;20553;-69
2022/09/26 05:55:06;;;;;;;1.30;1.20;;;19.50;85.20;;;;;;4992486;28;20483;-70
2022/09/26 05:57:33;;;;;;;1.20;1.20;;;19.50;85.20;;;;;;4992664;28;20474;-69
2022/09/26 06:00:01;;;;;;;1.13;1.13;;;19.50;85.20;;;;;;4992672;28;21031;-70
2022/09/26 06:02:28;;;;;;;0.97;0.97;;;19.50;85.30;;;;;;4991771;28;20538;-70
2022/09/26 06:04:55;;;;;;;1.37;0.70;;;19.50;85.30;;;;;;4992636;28;20443;-69
2022/09/26 06:07:22;;;;;;;1.00;1.00;;;19.50;85.30;;;;;;4992261;28;20475;-69
2022/09/26 06:09:50;;;;;;;1.00;1.00;;;19.50;85.40;;;;;;4992563;28;20450;-69
2022/09/26 06:12:19;;;;;;;0.90;0.90;;;19.50;85.50;;;;;;4992286;28;21069;-70
2022/09/26 06:14:46;;;;;;;1.30;1.30;;;19.50;85.60;;;;;;4992439;28;20451;-69
2022/09/26 06:17:13;;;;;;;0.97;0.97;;;19.50;85.60;;;;;;4992074;28;20463;-70
2022/09/26 06:19:40;;;;;;;0.90;0.90;;;19.50;85.60;;;;;;4991837;28;21043;-62
2022/09/26 06:22:07;;;;;;;1.27;1.10;;;19.50;87.10;;;;;;4992198;28;20533;-67
2022/09/26 06:24:33;;;;;;;1.20;1.20;;;19.50;88.00;;;;;;4991945;28;20454;-66
2022/09/26 06:27:03;;;;;;;1.00;1.00;;;19.60;88.30;;;;;;4992242;28;20467;-68
2022/09/26 06:29:30;;;;;;;0.97;0.97;;;19.60;88.30;;;;;;4992404;28;20475;-69
2022/09/26 06:31:56;;;;;;;0.90;0.90;;;19.60;89.00;;;;;;4991952;28;21052;-67
2022/09/26 06:34:24;;;;;;;1.47;1.37;;;19.70;89.70;;;;;;4992232;28;20529;-68
2022/09/26 06:36:51;;;;;;;4.73;1.30;;;19.70;90.10;;;;;;4992913;28;20483;-69
2022/09/26 06:39:18;;;;;;;7.13;2.37;;;19.80;91.60;;;;;;4992614;28;20444;-70
2022/09/26 06:41:45;;;;;;;3.60;2.30;;;19.90;98.00;;;;;;4992213;28;21036;-71
2022/09/26 06:44:13;;;;;;;6.13;3.40;;;20.00;99.90;;;;;;4991858;28;20497;-71
2022/09/26 06:46:40;;;;;;;10.33;4.00;;;19.90;98.30;;;;;;4992195;28;20474;-70
2022/09/26 06:49:07;;;;;;;10.70;3.77;;;20.00;98.70;;;;;;4992205;28;20451;-70
2022/09/26 06:51:36;;;;;;;10.17;4.30;;;20.00;99.60;;;;;;4991998;28;20521;-71
2022/09/26 06:54:03;;;;;;;8.23;3.70;;;20.00;99.90;;;;;;4992110;28;20454;-70
2022/09/26 06:56:30;;;;;;;10.13;4.77;;;20.00;99.90;;;;;;4992039;28;20582;-70
2022/09/26 06:58:57;;;;;;;9.33;3.90;;;20.10;99.90;;;;;;4991516;28;20812;-71
2022/09/26 07:01:25;;;;;;;11.13;4.27;;;20.10;99.90;;;;;;4991854;28;20523;-70
2022/09/26 07:03:53;;;;;;;10.17;4.30;;;20.10;99.90;;;;;;4992702;28;20530;-68
2022/09/26 07:06:20;;;;;;;9.27;3.50;;;20.10;99.90;;;;;;4992590;28;20471;-69
2022/09/26 07:08:47;;;;;;;6.80;3.87;;;20.10;99.90;;;;;;4992637;28;20451;-69
2022/09/26 07:11:14;;;;;;;5.50;3.23;;;20.10;99.90;;;;;;4991621;28;20573;-69
2022/09/26 07:13:41;;;;;;;9.50;3.73;;;20.10;99.90;;;;;;4991902;28;20501;-69
2022/09/26 07:16:07;;;;;;;5.23;2.90;;;20.10;99.90;;;;;;4991974;28;20498;-68
2022/09/26 07:18:36;;;;;;;6.67;3.47;;;20.10;99.90;;;;;;4991961;28;20898;-67
2022/09/26 07:21:05;;;;;;;4.37;3.20;;;20.10;99.90;;;;;;4992008;28;20454;-71
2022/09/26 07:23:32;;;;;;;5.43;3.07;;;20.20;99.90;;;;;;4991641;28;20534;-69
2022/09/26 07:25:59;;;;;;;9.77;3.57;;;20.20;99.90;;;;;;4991810;28;20463;-68
2022/09/26 07:28:26;;;;;;;6.57;3.07;;;20.30;99.90;;;;;;4993889;28;20818;-68
2022/09/26 07:30:56;;;;;;;5.17;3.10;;;20.30;99.90;;;;;;4995461;28;20871;-69
2022/09/26 07:33:23;;;;;;;5.20;2.60;;;20.30;99.90;;;;;;4995143;28;20483;-69
2022/09/26 07:35:52;;;;;;;8.70;2.93;;;20.30;99.90;;;;;;4995833;28;20546;-68
2022/09/26 07:38:18;;;;;;;7.57;4.70;;;20.30;99.90;;;;;;4996311;28;20482;-68
2022/09/26 07:40:45;;;;;;;6.75;2.97;;;20.30;99.90;;;;;;4995248;28;20456;-68
2022/09/26 07:43:13;;;;;;;5.13;2.77;;;20.30;99.90;;;;;;4996111;28;20211;-68
2022/09/26 07:51:10;;;;;;;2.97;2.63;;;20.40;99.90;;;;;;5015794;28;20461;-67
2022/09/26 07:53:40;;;;;;;5.17;3.00;;;20.40;99.90;;;;;;5013664;28;20450;-66
2022/09/26 07:56:09;;;;;;;3.47;3.17;;;20.50;99.90;;;;;;5007920;28;20802;-66
2022/09/26 07:58:38;;;;;;;3.47;2.60;;;20.50;99.90;;;;;;5015484;28;21033;-69
2022/09/26 08:01:06;;;;;;;7.13;2.63;;;20.50;99.90;;;;;;5015977;28;20453;-66
2022/09/26 08:03:34;;;;;;;3.63;1.90;;;20.50;99.90;;;;;;5015235;28;20446;-65
2022/09/26 08:06:01;;;;;;;7.10;2.70;;;20.50;99.90;;;;;;5008639;28;20478;-68
2022/09/26 08:08:30;;;;;;;4.90;2.50;;;20.50;99.90;;;;;;4995884;28;20458;-65
2022/09/26 08:10:57;;;;;;;3.60;1.80;;;20.60;99.90;;;;;;4995298;28;20451;-68
2022/09/26 08:13:25;;;;;;;3.40;2.10;;;20.60;99.90;;;;;;4994289;28;20486;-68
2022/09/26 08:15:53;;;;;;;5.80;2.50;;;20.50;99.90;;;;;;4994530;28;20453;-67
2022/09/26 08:18:20;;;;;;;3.37;2.47;;;20.50;99.90;;;;;;4994680;28;20443;-66
2022/09/26 08:20:47;;;;;;;4.20;2.20;;;20.50;99.90;;;;;;5008810;28;20457;-67
2022/09/26 08:23:14;;;;;;;5.03;2.93;;;20.50;99.90;;;;;;5014136;28;20824;-65
2022/09/26 08:25:43;;;;;;;2.37;1.97;;;20.60;99.90;;;;;;5014333;28;20473;-68
2022/09/26 08:28:11;;;;;;;2.07;1.97;;;20.60;99.90;;;;;;5012332;28;20858;-68
2022/09/26 08:30:39;;;;;;;2.23;2.07;;;20.60;99.90;;;;;;5013951;28;20946;-65
2022/09/26 08:33:06;;;;;;;2.90;2.53;;;20.50;98.90;;;;;;5011828;28;20478;-67
2022/09/26 08:35:37;;;;;;;4.03;2.23;;;20.60;98.60;;;;;;4998997;28;20454;-68
2022/09/26 08:38:05;;;;;;;4.43;1.93;;;20.50;99.50;;;;;;5013599;28;20450;-66
2022/09/26 08:40:44;;;;;;;5.50;1.90;;;20.40;99.90;;;;;;5002287;28;20451;-67
2022/09/26 08:43:28;;;;;;;2.73;2.50;;;20.40;99.90;;;;;;4994258;28;20458;-67
2022/09/26 08:49:13;;;;;;;2.00;1.80;;;20.40;99.90;;;;;;4994394;28;20422;-66
2022/09/26 08:51:44;;;;;;;4.43;2.10;;;20.40;99.70;;;;;;4993983;28;20455;-66
2022/09/26 08:54:15;;;;;;;3.33;2.43;;;20.50;98.90;;;;;;4994119;28;20447;-66
2022/09/26 08:56:46;;;;;;;5.00;2.10;;;20.60;98.60;;;;;;4994011;28;20542;-67
2022/09/26 08:59:23;;;;;;;3.13;2.70;;;20.60;98.90;;;;;;4994392;28;20451;-67
2022/09/26 09:01:52;;;;;;;3.33;2.17;;;20.60;99.90;;;;;;4993792;28;20449;-67
2022/09/26 09:04:25;;;;;;;2.23;1.77;;;20.60;99.10;;;;;;4993737;28;20522;-66
2022/09/26 09:06:56;;;;;;;1.97;1.77;;;20.50;98.90;;;;;;5003319;28;20999;-66
2022/09/26 09:09:23;;;;;;;7.40;1.80;;;20.60;99.60;;;;;;5027006;28;20466;-69
2022/09/26 09:12:04;;;;;;;2.60;2.00;;;20.60;99.20;;;;;;5013529;28;20564;-66
2022/09/26 09:14:45;;;;;;;2.80;1.60;;;20.70;99.50;;;;;;5013105;28;20529;-65
2022/09/26 09:17:22;;;;;;;2.47;1.70;;;20.60;99.90;;;;;;5013042;28;20497;-66
2022/09/26 09:20:00;;;;;;;1.40;1.30;;;20.60;99.90;;;;;;5011535;28;20529;-66
2022/09/26 09:22:43;;;;;;;2.47;1.90;;;20.60;99.90;;;;;;5012789;28;20453;-63
2022/09/26 09:25:15;;;;;;;3.57;1.80;;;20.60;99.90;;;;;;5012889;28;20450;-64
2022/09/26 09:27:55;;;;;;;3.00;1.70;;;20.70;99.10;;;;;;5012761;28;20477;-64
2022/09/26 09:30:25;;;;;;;4.73;1.33;;;20.70;98.90;;;;;;5012893;28;20537;-65
2022/09/26 09:32:56;;;;;;;2.97;1.83;;;20.70;99.30;;;;;;5010585;28;20482;-64
2022/09/26 09:35:31;;;;;;;1.93;1.70;;;20.80;99.50;;;;;;4993134;28;20443;-67
2022/09/26 09:37:59;;;;;;;7.70;4.27;;;20.80;99.70;;;;;;4993145;28;20447;-68
2022/09/26 09:40:31;;;;;;;1.60;1.50;;;20.80;98.80;;;;;;4993069;28;20453;-66
2022/09/26 09:43:02;;;;;;;1.70;1.43;;;20.90;98.40;;;;;;4992710;28;20439;-66
2022/09/26 09:45:37;;;;;;;3.17;1.17;;;20.90;97.80;;;;;;4992995;28;20528;-67
2022/09/26 09:48:06;;;;;;;2.23;2.03;;;21.00;97.70;;;;;;4992847;28;20439;-67
2022/09/26 09:50:41;;;;;;;1.57;1.47;;;21.00;96.90;;;;;;4992383;28;20811;-67
2022/09/26 09:53:21;;;;;;;2.30;1.97;;;21.10;96.60;;;;;;4992611;28;20520;-66
2022/09/26 09:56:01;;;;;;;5.03;2.30;;;21.10;96.30;;;;;;4992705;28;20538;-66
2022/09/26 09:58:43;;;;;;;2.63;1.77;;;21.10;96.00;;;;;;4992840;28;20473;-66
2022/09/26 10:01:17;;;;;;;5.27;1.43;;;21.10;95.70;;;;;;4992741;28;20530;-69
2022/09/26 10:03:54;;;;;;;1.93;1.40;;;21.10;95.50;;;;;;4992781;28;20443;-67
2022/09/26 10:06:21;;;;;;;1.57;1.47;;;21.10;95.30;;;;;;4992573;28;20474;-66
2022/09/26 10:08:50;;;;;;;1.87;1.23;;;21.10;95.10;;;;;;4992558;28;20455;-68
2022/09/26 10:11:27;;;;;;;2.37;1.50;;;21.10;94.90;;;;;;4992355;28;20501;-67
2022/09/26 10:13:56;;;;;;;3.30;1.47;;;21.10;94.70;;;;;;4992376;28;20577;-68
2022/09/26 10:16:25;;;;;;;3.33;1.13;;;21.10;94.60;;;;;;4992388;28;20471;-68
2022/09/26 10:18:55;;;;;;;1.90;1.33;;;21.10;94.40;;;;;;4992460;28;20502;-67
2022/09/26 10:21:28;;;;;;;1.47;1.23;;;21.10;94.60;;;;;;4992275;28;20972;-67
2022/09/26 10:23:54;;;;;;;1.47;1.17;;;21.10;94.20;;;;;;4992443;28;20458;-68
2022/09/26 10:26:25;;;;;;;2.43;1.33;;;21.10;94.00;;;;;;4992329;28;20610;-67
2022/09/26 10:28:55;;;;;;;2.13;1.77;;;21.10;93.80;;;;;;4992304;28;20873;-67
2022/09/26 10:31:28;;;;;;;1.43;1.30;;;21.20;93.70;;;;;;4992205;28;20451;-67
2022/09/26 10:33:58;;;;;;;1.37;1.27;;;21.10;93.60;;;;;;4992291;28;20541;-67
2022/09/26 10:36:30;;;;;;;3.13;1.30;;;21.20;93.50;;;;;;4992207;28;20478;-68
2022/09/26 10:41:45;;;;;;;2.20;1.20;;;21.10;93.20;;;;;;4992146;28;20415;-67
2022/09/26 10:44:24;;;;;;;2.00;1.47;;;21.10;93.20;;;;;;4992247;28;20470;-68
2022/09/26 10:46:56;;;;;;;1.50;1.40;;;21.10;93.00;;;;;;4992109;28;20549;-68
2022/09/26 10:49:31;;;;;;;1.77;1.20;;;21.10;92.90;;;;;;4992191;28;20812;-68
2022/09/26 10:52:14;;;;;;;1.23;1.13;;;21.10;92.90;;;;;;4992006;28;20446;-68
2022/09/26 10:54:45;;;;;;;1.50;1.03;;;21.10;92.80;;;;;;4992061;28;20435;-67
2022/09/26 10:57:23;;;;;;;1.63;1.20;;;21.10;92.70;;;;;;4992156;28;20834;-68
2022/09/26 10:59:53;;;;;;;2.80;1.30;;;21.10;92.60;;;;;;4992180;28;20435;-67
2022/09/26 11:02:24;;;;;;;1.47;1.03;;;21.10;92.40;;;;;;4993864;28;20530;-67
2022/09/26 11:07:41;;;;;;;1.50;1.17;;;21.10;92.30;;;;;;4995842;28;20438;-68
2022/09/26 11:10:12;;;;;;;0.90;0.90;;;21.10;92.50;;;;;;4995941;28;20532;-68
2022/09/26 11:12:56;;;;;;;1.10;1.00;;;21.10;92.10;;;;;;4995537;28;20498;-67
2022/09/26 11:15:24;;;;;;;1.60;1.10;;;21.10;92.00;;;;;;4995746;28;20530;-67
2022/09/26 11:17:54;;;;;;;1.53;1.00;;;21.10;92.00;;;;;;4995681;28;20502;-68
2022/09/26 11:20:36;;;;;;;1.20;1.10;;;21.10;91.90;;;;;;4995703;28;20668;-67
2022/09/26 11:23:13;;;;;;;0.80;0.80;;;21.10;91.80;;;;;;4995442;28;20810;-68
2022/09/26 11:25:54;;;;;;;2.40;1.30;;;21.10;91.70;;;;;;4995593;28;20446;-67
2022/09/26 11:28:29;;;;;;;1.30;1.30;;;21.10;91.60;;;;;;4995532;28;20999;-67
2022/09/26 11:31:04;;;;;;;1.57;0.67;;;21.10;91.60;;;;;;4995437;28;20447;-68
2022/09/26 11:33:33;;;;;;;0.97;0.90;;;21.10;91.50;;;;;;4995078;28;20996;-67
2022/09/26 11:36:13;;;;;;;1.30;0.80;;;21.10;91.50;;;;;;4995128;28;20482;-67
2022/09/26 11:38:46;;;;;;;0.90;0.90;;;21.10;91.40;;;;;;4995346;28;20545;-68
2022/09/26 11:41:37;;;;;;;0.90;0.90;;;21.10;91.30;;;;;;4995254;28;20455;-68
2022/09/26 11:44:24;;;;;;;0.80;0.80;;;21.10;91.30;;;;;;4995173;28;20543;-67
2022/09/26 11:47:05;;;;;;;0.80;0.70;;;21.10;91.20;;;;;;4995147;28;20466;-67
2022/09/26 11:49:52;;;;;;;0.87;0.87;;;21.10;91.10;;;;;;4995180;28;20448;-68
2022/09/26 11:52:38;;;;;;;1.57;0.93;;;21.10;91.10;;;;;;4994828;28;20434;-68
2022/09/26 11:55:17;;;;;;;1.30;1.20;;;21.10;91.00;;;;;;4995091;28;20453;-68
2022/09/26 11:57:54;;;;;;;3.13;1.00;;;21.10;90.90;;;;;;4994870;28;20550;-67
2022/09/26 12:00:26;;;;;;;1.17;0.83;;;21.10;90.90;;;;;;4995208;28;20595;-67
2022/09/26 12:03:42;;;;;;;3.53;0.70;;;21.10;90.80;;;;;;4994754;28;20450;-68
2022/09/26 12:06:22;;;;;;;2.00;1.17;;;21.10;90.70;;;;;;4994964;28;20467;-67
2022/09/26 12:09:11;;;;;;;0.70;0.70;;;21.10;90.70;;;;;;4994822;28;20454;-66
2022/09/26 12:11:46;;;;;;;1.37;1.00;;;21.10;90.60;;;;;;4994644;28;20608;-68
2022/09/26 12:14:26;;;;;;;1.13;0.90;;;21.10;90.60;;;;;;4994034;28;20479;-67
2022/09/26 12:16:58;;;;;;;0.73;0.73;;;21.00;90.50;;;;;;4994610;28;20477;-67
2022/09/26 12:19:32;;;;;;;0.73;0.73;;;21.10;90.50;;;;;;4994573;28;20449;-68
2022/09/26 12:25:03;;;;;;;1.93;1.83;;;21.10;90.40;;;;;;4994745;28;20790;-68
2022/09/26 12:27:39;;;;;;;1.27;0.80;;;21.10;90.20;;;;;;4994461;28;20463;-67
2022/09/26 12:30:11;;;;;;;0.60;0.60;;;21.10;90.30;;;;;;4994539;28;20457;-68
2022/09/26 12:33:10;;;;;;;1.30;0.70;;;21.10;90.20;;;;;;4993980;28;21008;-68
2022/09/26 12:35:47;;;;;;;1.30;0.87;;;21.10;90.10;;;;;;4978998;28;20501;-69
2022/09/26 12:38:31;;;;;;;0.57;0.57;;;21.10;90.10;;;;;;4994870;28;20478;-67
2022/09/26 12:41:13;;;;;;;0.80;0.80;;;21.10;90.00;;;;;;4994181;28;20451;-67
2022/09/26 12:44:21;;;;;;;0.70;0.70;;;21.00;89.90;;;;;;4994212;28;20481;-68
2022/09/26 12:47:20;;;;;;;1.47;1.13;;;21.10;89.90;;;;;;4933766;29;20470;-67
2022/09/26 12:50:07;;;;;;;0.87;0.87;;;21.00;89.70;;;;;;4917958;29;20450;-67
2022/09/26 12:52:55;;;;;;;1.57;1.47;;;21.00;89.70;;;;;;4985088;28;20534;-67
2022/09/26 12:55:32;;;;;;;0.60;0.60;;;21.00;89.60;;;;;;4993991;28;20457;-67
2022/09/26 12:58:19;;;;;;;0.97;0.80;;;21.00;89.70;;;;;;4994273;28;20455;-67
2022/09/26 13:00:56;;;;;;;0.70;0.70;;;21.00;89.60;;;;;;4996805;28;20488;-67
2022/09/26 13:04:11;;;;;;;1.07;0.73;;;21.00;89.40;;;;;;4998671;28;20502;-67
2022/09/26 13:06:51;;;;;;;0.60;0.60;;;21.00;89.30;;;;;;4963473;28;20473;-67
2022/09/26 13:09:34;;;;;;;0.80;0.80;;;21.00;89.20;;;;;;5000600;28;20489;-68
2022/09/26 13:12:15;;;;;;;0.73;0.70;;;21.00;89.10;;;;;;5000354;28;20454;-68
2022/09/26 13:15:00;;;;;;;0.70;0.70;;;21.00;89.10;;;;;;4999335;28;20482;-67
2022/09/26 13:17:32;;;;;;;1.23;0.83;;;21.00;89.00;;;;;;4999368;28;20538;-69
2022/09/26 13:20:05;;;;;;;0.60;0.60;;;21.00;89.00;;;;;;4993448;28;20453;-67
2022/09/26 13:22:39;;;;;;;1.37;1.20;;;21.00;88.90;;;;;;4993473;28;20451;-68
2022/09/26 13:25:16;;;;;;;0.60;0.60;;;21.00;89.00;;;;;;4992990;28;20805;-67
2022/09/26 13:27:51;;;;;;;0.60;0.60;;;21.00;88.80;;;;;;4993429;28;20471;-68
2022/09/26 13:30:21;;;;;;;3.50;0.73;;;21.00;88.70;;;;;;4993599;28;20819;-68
2022/09/26 13:32:55;;;;;;;0.60;0.60;;;21.00;88.60;;;;;;4993057;28;20447;-68